Time;durP1;ratioP1;P1;durP2;ratioP2;P2;SDS_P1;SDS_P2;PMS_P1;PMS_P2;Temp;Humidity;BMP_temperature;BMP_pressure;BME280_temperature;BME280_humidity;BME280_pressure;Samples;Min_cycle;Max_cycle;Signal;HPM_P1;HPM_P2
2023/07/22 00:01:48;;;;;;;6.82;4.43;;;;;;;16.69;100.00;96657.81;5002246;28;20042;-68
2023/07/22 00:04:14;;;;;;;6.43;3.58;;;;;;;16.20;100.00;96657.75;4997900;28;20082;-69
2023/07/22 00:06:39;;;;;;;8.73;4.28;;;;;;;15.98;100.00;96650.81;5003961;28;20046;-68
2023/07/22 00:09:05;;;;;;;6.72;3.95;;;;;;;15.94;100.00;96652.81;4997878;28;20132;-69
2023/07/22 00:11:31;;;;;;;7.68;3.92;;;;;;;15.91;100.00;96648.09;5003384;28;20104;-68
2023/07/22 00:13:56;;;;;;;10.15;4.57;;;;;;;15.82;100.00;96652.06;5002316;28;20041;-67
2023/07/22 00:16:22;;;;;;;7.03;3.75;;;;;;;15.77;100.00;96649.75;4997344;28;20875;-67
2023/07/22 00:18:47;;;;;;;5.82;4.05;;;;;;;15.74;100.00;96649.72;5002313;28;20387;-67
2023/07/22 00:21:13;;;;;;;4.95;3.40;;;;;;;15.87;100.00;96639.81;4996960;28;20249;-68
2023/07/22 00:23:39;;;;;;;9.70;3.80;;;;;;;16.19;100.00;96630.56;5001619;28;20034;-67
2023/07/22 00:26:04;;;;;;;8.63;3.05;;;;;;;16.34;100.00;96628.47;4996434;28;20052;-68
2023/07/22 00:28:30;;;;;;;6.25;3.00;;;;;;;16.50;100.00;96636.25;5002148;28;20580;-68
2023/07/22 00:30:57;;;;;;;5.72;3.13;;;;;;;16.61;100.00;96636.94;5002160;28;20648;-68
2023/07/22 00:33:23;;;;;;;6.97;3.33;;;;;;;16.66;100.00;96638.50;4997521;28;20060;-67
2023/07/22 00:35:52;;;;;;;7.65;2.92;;;;;;;16.65;100.00;96640.44;5001981;28;20042;-67
2023/07/22 00:38:18;;;;;;;5.75;3.47;;;;;;;16.75;100.00;96631.28;4995318;28;20038;-67
2023/07/22 00:40:44;;;;;;;5.57;3.35;;;;;;;16.78;100.00;96627.72;5001522;28;20046;-67
2023/07/22 00:43:09;;;;;;;8.07;3.60;;;;;;;16.56;100.00;96631.84;4994639;28;20406;-67
2023/07/22 00:45:35;;;;;;;9.43;3.33;;;;;;;16.33;100.00;96626.88;5001262;28;20426;-66
2023/07/22 00:48:00;;;;;;;6.05;3.40;;;;;;;16.07;100.00;96629.03;4998708;28;20096;-67
2023/07/22 00:50:26;;;;;;;8.45;3.83;;;;;;;15.73;100.00;96623.28;5001453;28;20049;-67
2023/07/22 00:52:52;;;;;;;7.43;3.95;;;;;;;15.58;100.00;96623.38;5001782;28;20491;-67
2023/07/22 00:55:18;;;;;;;5.15;3.85;;;;;;;15.44;100.00;96624.19;4999939;28;20077;-67
2023/07/22 00:57:43;;;;;;;6.68;4.03;;;;;;;15.31;100.00;96620.31;5005824;28;20045;-67
2023/07/22 01:00:11;;;;;;;10.93;4.03;;;;;;;15.30;100.00;96624.25;5002883;28;20129;-67
2023/07/22 01:02:40;;;;;;;8.82;3.80;;;;;;;15.28;100.00;96621.13;5006443;28;20402;-66
2023/07/22 01:05:08;;;;;;;8.65;4.90;;;;;;;15.26;100.00;96615.22;5000616;28;20050;-66
2023/07/22 01:07:34;;;;;;;8.15;4.30;;;;;;;15.21;100.00;96623.91;5005315;28;20507;-67
2023/07/22 01:10:00;;;;;;;7.55;4.07;;;;;;;15.08;100.00;96613.28;5005209;28;20046;-68
2023/07/22 01:12:25;;;;;;;9.32;4.45;;;;;;;15.06;100.00;96620.41;4999643;28;20048;-67
2023/07/22 01:14:51;;;;;;;6.30;3.80;;;;;;;15.01;100.00;96613.31;5005829;28;20050;-66
2023/07/22 01:17:16;;;;;;;6.72;4.50;;;;;;;14.91;100.00;96616.91;5000020;28;20038;-67
2023/07/22 01:19:43;;;;;;;11.68;5.38;;;;;;;14.71;100.00;96625.59;5005042;28;20073;-66
2023/07/22 01:22:09;;;;;;;12.10;4.88;;;;;;;14.54;100.00;96626.34;4999891;28;20048;-67
2023/07/22 01:24:35;;;;;;;8.23;4.40;;;;;;;14.58;100.00;96629.91;5004642;28;20041;-67
2023/07/22 01:27:00;;;;;;;8.07;4.60;;;;;;;14.70;100.00;96620.47;5005336;28;20100;-68
2023/07/22 01:29:26;;;;;;;8.23;3.90;;;;;;;14.99;100.00;96629.47;4999565;28;20598;-67
2023/07/22 01:31:54;;;;;;;6.13;4.00;;;;;;;15.08;100.00;96637.34;5005034;28;20386;-66
2023/07/22 01:34:20;;;;;;;9.80;3.90;;;;;;;15.15;100.00;96622.75;4998544;28;20104;-67
2023/07/22 01:36:47;;;;;;;7.35;3.83;;;;;;;15.22;100.00;96617.97;5003592;28;20042;-66
2023/07/22 01:39:14;;;;;;;4.95;3.28;;;;;;;15.28;100.00;96621.13;5000716;28;20092;-68
2023/07/22 01:41:39;;;;;;;10.27;3.88;;;;;;;15.36;100.00;96616.34;5003282;28;20033;-67
2023/07/22 01:44:05;;;;;;;7.18;3.85;;;;;;;15.32;100.00;96610.84;5003151;28;20383;-67
2023/07/22 01:46:30;;;;;;;7.55;3.90;;;;;;;15.29;100.00;96617.19;5020906;28;20433;-67
2023/07/22 01:48:56;;;;;;;4.55;2.88;;;;;;;15.30;100.00;96618.72;5017398;28;20033;-66
2023/07/22 01:51:21;;;;;;;7.18;3.40;;;;;;;15.23;100.00;96611.28;5005114;28;20509;-67
2023/07/22 01:53:46;;;;;;;8.40;3.13;;;;;;;15.13;100.00;96617.63;5010557;28;20403;-65
2023/07/22 01:56:13;;;;;;;7.47;2.70;;;;;;;15.09;100.00;96633.41;5002904;28;20058;-66
2023/07/22 01:58:38;;;;;;;6.93;3.22;;;;;;;15.07;100.00;96621.97;5006716;28;20129;-67
2023/07/22 02:01:04;;;;;;;10.52;3.35;;;;;;;15.01;100.00;96626.31;5001120;28;20132;-70
2023/07/22 02:03:29;;;;;;;7.13;3.42;;;;;;;15.02;100.00;96636.94;5003175;28;20120;-67
2023/07/22 02:06:03;;;;;;;9.02;3.20;;;;;;;15.01;100.00;96634.59;5003458;28;20046;-69
2023/07/22 02:08:28;;;;;;;7.13;3.15;;;;;;;15.08;100.00;96627.06;5001301;28;20529;-68
2023/07/22 02:10:53;;;;;;;9.77;3.75;;;;;;;15.19;100.00;96618.78;5004510;28;20053;-68
2023/07/22 02:13:19;;;;;;;7.35;3.30;;;;;;;15.21;100.00;96618.38;4999117;28;20514;-68
2023/07/22 02:15:44;;;;;;;7.90;3.22;;;;;;;15.24;100.00;96626.63;5004593;28;20038;-68
2023/07/22 02:18:09;;;;;;;8.80;3.42;;;;;;;15.26;100.00;96620.72;4998857;28;20817;-68
2023/07/22 02:20:35;;;;;;;7.55;3.70;;;;;;;15.22;100.00;96623.50;5004134;28;20070;-68
2023/07/22 02:23:00;;;;;;;6.78;3.45;;;;;;;15.22;100.00;96619.97;5004111;28;20033;-68
2023/07/22 02:25:26;;;;;;;5.45;3.13;;;;;;;15.19;100.00;96618.00;4999474;28;20037;-67
2023/07/22 02:27:51;;;;;;;5.90;3.45;;;;;;;15.20;100.00;96628.63;5004944;28;20038;-67
2023/07/22 02:30:17;;;;;;;6.53;3.60;;;;;;;15.23;100.00;96630.59;5003260;28;20132;-68
2023/07/22 02:32:43;;;;;;;8.20;3.50;;;;;;;15.17;100.00;96639.69;5006461;28;20483;-68
2023/07/22 02:35:09;;;;;;;7.90;3.80;;;;;;;15.18;100.00;96641.22;5002606;28;20390;-68
2023/07/22 02:37:38;;;;;;;7.18;3.60;;;;;;;15.18;100.00;96639.28;5004388;28;20053;-68
2023/07/22 02:40:13;;;;;;;7.70;3.60;;;;;;;15.19;100.00;96635.31;5002743;28;20532;-69
2023/07/22 02:42:39;;;;;;;5.13;3.35;;;;;;;15.19;100.00;96626.28;5002313;28;20060;-68
2023/07/22 02:45:06;;;;;;;6.38;3.17;;;;;;;15.29;100.00;96619.94;4998030;28;20041;-66
2023/07/22 02:47:32;;;;;;;5.97;3.35;;;;;;;15.27;100.00;96623.09;5002771;28;20034;-67
2023/07/22 02:49:58;;;;;;;6.43;3.42;;;;;;;15.25;100.00;96624.66;5003648;28;20127;-68
2023/07/22 02:52:23;;;;;;;6.70;3.72;;;;;;;15.28;100.00;96616.38;4998651;28;20235;-67
2023/07/22 02:55:15;;;;;;;8.18;3.50;;;;;;;15.17;100.00;96621.16;5003252;28;20124;-68
2023/07/22 02:57:41;;;;;;;5.90;3.28;;;;;;;15.06;100.00;96620.41;5003470;28;20415;-68
2023/07/22 03:00:07;;;;;;;5.65;3.35;;;;;;;15.04;100.00;96625.53;4998140;28;20478;-65
2023/07/22 03:02:37;;;;;;;8.55;3.63;;;;;;;14.91;100.00;96627.91;5011065;28;20391;-68
2023/07/22 03:05:08;;;;;;;7.20;3.70;;;;;;;14.77;100.00;96617.69;5021194;28;20041;-69
2023/07/22 03:07:34;;;;;;;7.40;2.90;;;;;;;14.67;100.00;96626.75;5023063;28;20043;-69
2023/07/22 03:10:00;;;;;;;5.35;2.83;;;;;;;14.80;100.00;96624.38;5022730;28;20124;-67
2023/07/22 03:12:25;;;;;;;7.00;3.03;;;;;;;14.86;100.00;96623.59;5018617;28;20132;-67
2023/07/22 03:14:51;;;;;;;10.05;3.40;;;;;;;14.85;100.00;96624.75;5023748;28;20037;-68
2023/07/22 03:17:18;;;;;;;8.88;3.80;;;;;;;14.83;100.00;96621.63;5032282;28;20516;-69
2023/07/22 03:19:44;;;;;;;7.55;3.10;;;;;;;14.87;100.00;96618.84;5022386;28;20045;-68
2023/07/22 03:22:09;;;;;;;7.18;3.38;;;;;;;14.93;100.00;96617.28;5032356;28;20825;-68
2023/07/22 03:24:35;;;;;;;7.45;3.03;;;;;;;14.90;100.00;96607.03;5022450;28;20045;-69
2023/07/22 03:27:01;;;;;;;6.20;2.80;;;;;;;14.82;100.00;96617.31;5021060;28;20053;-70
2023/07/22 03:29:27;;;;;;;9.18;3.28;;;;;;;14.77;100.00;96612.19;5018280;28;20045;-69
2023/07/22 03:31:53;;;;;;;6.10;2.63;;;;;;;14.69;100.00;96616.13;5023296;28;20095;-69
2023/07/22 03:34:18;;;;;;;6.95;2.63;;;;;;;14.66;100.00;96619.69;5022298;28;20037;-69
2023/07/22 03:36:43;;;;;;;10.30;3.10;;;;;;;14.66;100.00;96620.47;5027675;28;20049;-69
2023/07/22 03:39:09;;;;;;;9.73;3.25;;;;;;;14.62;100.00;96621.63;5021569;28;20060;-66
2023/07/22 03:41:34;;;;;;;5.15;2.60;;;;;;;14.54;100.00;96620.84;5019979;28;20041;-71
2023/07/22 03:43:59;;;;;;;5.15;2.58;;;;;;;14.54;100.00;96612.56;5017623;28;20042;-72
2023/07/22 03:46:25;;;;;;;7.15;2.72;;;;;;;14.45;100.00;96615.72;4997394;28;20628;-71
2023/07/22 03:48:50;;;;;;;7.65;3.05;;;;;;;14.41;100.00;96614.94;5002604;28;20041;-72
2023/07/22 03:51:17;;;;;;;7.30;2.60;;;;;;;14.34;100.00;96615.72;4997482;28;20494;-72
2023/07/22 03:53:42;;;;;;;4.85;2.22;;;;;;;14.28;100.00;96627.53;5002794;28;20482;-72
2023/07/22 03:56:08;;;;;;;6.72;2.67;;;;;;;14.29;100.00;96615.31;4997507;28;20065;-72
2023/07/22 03:58:33;;;;;;;5.78;2.60;;;;;;;14.30;100.00;96614.16;5002509;28;20057;-71
2023/07/22 04:00:58;;;;;;;9.63;2.75;;;;;;;14.33;100.00;96616.09;5002022;28;20037;-71
2023/07/22 04:03:24;;;;;;;5.53;2.80;;;;;;;14.36;100.00;96622.81;5016462;28;20037;-70
2023/07/22 04:05:56;;;;;;;4.28;2.80;;;;;;;14.33;100.00;96621.63;5022170;28;20089;-71
2023/07/22 04:08:22;;;;;;;6.53;2.53;;;;;;;14.32;100.00;96625.56;5018017;28;20890;-69
2023/07/22 04:11:06;;;;;;;7.53;2.90;;;;;;;14.37;100.00;96627.94;5037733;28;20113;-69
2023/07/22 04:13:32;;;;;;;5.38;2.40;;;;;;;14.43;100.00;96620.84;5023196;28;20131;-70
2023/07/22 04:15:57;;;;;;;8.45;3.20;;;;;;;14.41;100.00;96625.97;5023402;28;20136;-70
2023/07/22 04:18:23;;;;;;;9.05;3.05;;;;;;;14.37;100.00;96621.63;5017362;28;20046;-68
2023/07/22 04:20:55;;;;;;;4.40;2.58;;;;;;;14.38;100.00;96623.19;5022465;28;20041;-70
2023/07/22 04:23:20;;;;;;;6.35;2.60;;;;;;;14.39;100.00;96622.81;5016562;28;20106;-71
2023/07/22 04:25:45;;;;;;;4.10;2.47;;;;;;;14.45;100.00;96628.72;5020385;28;20525;-71
2023/07/22 04:28:11;;;;;;;6.28;2.40;;;;;;;14.46;100.00;96633.84;5017220;28;20041;-71
2023/07/22 04:30:37;;;;;;;6.35;2.60;;;;;;;14.54;100.00;96637.38;5021483;28;20176;-70
2023/07/22 04:33:05;;;;;;;6.80;2.38;;;;;;;14.59;100.00;96631.50;5019217;28;20091;-67
2023/07/22 04:35:35;;;;;;;5.90;2.55;;;;;;;14.70;100.00;96635.03;5020238;28;20033;-69
2023/07/22 04:38:01;;;;;;;6.10;2.20;;;;;;;14.82;100.00;96633.03;5022252;28;20041;-70
2023/07/22 04:40:27;;;;;;;6.15;2.50;;;;;;;14.87;100.00;96635.41;5017441;28;20077;-70
2023/07/22 04:42:53;;;;;;;9.70;2.63;;;;;;;14.97;100.00;96647.59;5005990;28;20116;-70
2023/07/22 04:45:18;;;;;;;11.95;2.53;;;;;;;15.03;100.00;96648.75;4994997;28;20129;-70
2023/07/22 04:47:46;;;;;;;5.30;2.38;;;;;;;15.16;100.00;96649.13;5000910;28;20054;-71
2023/07/22 04:50:13;;;;;;;6.22;2.40;;;;;;;15.24;100.00;96651.47;4996378;28;20414;-70
2023/07/22 04:52:42;;;;;;;6.57;2.50;;;;;;;15.41;100.00;96646.28;5001437;28;20511;-69
2023/07/22 04:55:08;;;;;;;8.23;2.40;;;;;;;15.51;100.00;96645.47;4996449;28;20038;-70
2023/07/22 04:57:45;;;;;;;11.10;2.80;;;;;;;15.61;100.00;96641.09;5003321;28;20633;-71
2023/07/22 05:00:14;;;;;;;6.32;2.65;;;;;;;15.65;100.00;96645.41;4999308;28;20046;-71
2023/07/22 05:02:40;;;;;;;7.75;2.53;;;;;;;15.66;100.00;96647.00;5014617;28;20069;-71
2023/07/22 05:05:06;;;;;;;6.85;2.67;;;;;;;15.60;100.00;96653.34;5016388;28;20128;-71
2023/07/22 05:07:32;;;;;;;9.23;2.70;;;;;;;15.60;100.00;96650.56;5021673;28;20067;-69
2023/07/22 05:09:57;;;;;;;9.18;2.70;;;;;;;15.63;100.00;96658.06;5021629;28;20128;-69
2023/07/22 05:12:23;;;;;;;11.15;2.60;;;;;;;15.57;100.00;96659.66;5015911;28;20064;-70
2023/07/22 05:14:48;;;;;;;5.95;3.03;;;;;;;15.54;100.00;96657.69;5022019;28;20132;-69
2023/07/22 05:17:14;;;;;;;7.63;2.70;;;;;;;15.51;100.00;96656.50;5016364;28;20053;-70
2023/07/22 05:19:40;;;;;;;5.60;3.03;;;;;;;15.39;100.00;96660.50;5021245;28;20137;-70
2023/07/22 05:22:05;;;;;;;4.28;2.60;;;;;;;15.41;100.00;96663.66;5016589;28;20052;-70
2023/07/22 05:24:31;;;;;;;8.13;2.90;;;;;;;15.48;100.00;96666.41;5022267;28;20115;-70
2023/07/22 05:26:56;;;;;;;6.65;2.50;;;;;;;15.63;100.00;96658.06;5021280;28;20045;-70
2023/07/22 05:29:22;;;;;;;4.20;2.10;;;;;;;15.75;100.00;96673.41;5031521;28;20187;-70
2023/07/22 05:31:47;;;;;;;5.68;2.90;;;;;;;15.85;100.00;96664.28;5020939;28;20124;-70
2023/07/22 05:34:12;;;;;;;9.55;2.90;;;;;;;15.93;100.00;96670.56;5015680;28;20532;-70
2023/07/22 05:36:38;;;;;;;6.63;2.70;;;;;;;16.08;100.00;96663.78;5020362;28;20474;-70
2023/07/22 05:39:04;;;;;;;5.82;2.55;;;;;;;16.14;100.00;96673.19;5032037;28;20061;-65
2023/07/22 05:41:29;;;;;;;13.15;3.13;;;;;;;16.20;100.00;96670.78;5020706;28;20048;-70
2023/07/22 05:43:55;;;;;;;5.53;2.30;;;;;;;16.25;100.00;96675.91;5005021;28;20105;-70
2023/07/22 05:46:20;;;;;;;5.28;2.90;;;;;;;16.31;100.00;96673.50;4997752;28;20049;-71
2023/07/22 05:48:45;;;;;;;9.27;2.70;;;;;;;16.40;100.00;96671.06;5003888;28;20057;-71
2023/07/22 05:51:11;;;;;;;6.32;2.80;;;;;;;16.49;100.00;96682.44;5000209;28;20121;-70
2023/07/22 05:53:36;;;;;;;6.43;2.75;;;;;;;16.61;100.00;96683.94;5011474;28;21384;-72
2023/07/22 05:56:02;;;;;;;5.88;2.70;;;;;;;16.75;100.00;96681.06;5004050;28;20046;-68
2023/07/22 05:58:27;;;;;;;5.90;2.90;;;;;;;16.88;100.00;96695.19;5012187;28;20057;-71
2023/07/22 06:00:56;;;;;;;6.45;2.58;;;;;;;16.93;100.00;96686.47;5024070;28;20044;-72
2023/07/22 06:03:21;;;;;;;6.53;2.72;;;;;;;16.98;100.00;96693.56;5019215;28;20567;-70
2023/07/22 06:05:47;;;;;;;8.43;2.78;;;;;;;17.06;100.00;96700.56;5024572;28;20076;-71
2023/07/22 06:08:12;;;;;;;7.25;2.83;;;;;;;17.16;100.00;96699.69;5019089;28;20114;-71
2023/07/22 06:10:40;;;;;;;4.45;2.42;;;;;;;17.19;100.00;96701.63;5024637;28;20361;-71
2023/07/22 06:13:05;;;;;;;9.25;2.83;;;;;;;17.18;100.00;96702.06;5018932;28;20041;-69
2023/07/22 06:15:31;;;;;;;8.13;3.15;;;;;;;17.19;100.00;96696.09;5023867;28;20407;-71
2023/07/22 06:17:56;;;;;;;6.43;2.47;;;;;;;17.32;100.00;96707.47;5024271;28;20045;-70
2023/07/22 06:20:21;;;;;;;5.00;2.50;;;;;;;17.29;100.00;96711.03;5018903;28;20130;-71
2023/07/22 06:22:47;;;;;;;5.75;2.97;;;;;;;17.39;100.00;96712.91;5024155;28;20046;-72
2023/07/22 06:25:12;;;;;;;5.90;2.53;;;;;;;17.41;100.00;96711.72;5019015;28;20497;-71
2023/07/22 06:27:38;;;;;;;5.35;2.55;;;;;;;17.54;100.00;96710.00;5022496;28;20045;-72
2023/07/22 06:30:04;;;;;;;4.25;2.65;;;;;;;17.67;100.00;96718.56;5021263;28;20386;-68
2023/07/22 06:32:30;;;;;;;5.15;2.80;;;;;;;17.67;100.00;96713.03;5023874;28;20153;-70
2023/07/22 06:34:58;;;;;;;6.68;2.60;;;;;;;17.78;100.00;96719.22;5022346;28;20195;-70
2023/07/22 06:37:24;;;;;;;8.57;3.53;;;;;;;17.90;100.00;96720.69;5016594;28;20606;-71
2023/07/22 06:39:50;;;;;;;7.72;2.80;;;;;;;18.08;100.00;96720.47;5023853;28;20128;-70
2023/07/22 06:42:15;;;;;;;5.97;2.85;;;;;;;18.20;100.00;96728.22;5009934;28;20073;-70
2023/07/22 06:44:41;;;;;;;5.65;2.70;;;;;;;18.34;100.00;96722.47;5006698;28;20048;-69
2023/07/22 06:47:06;;;;;;;5.40;2.80;;;;;;;18.77;100.00;96723.84;4997266;28;20439;-72
2023/07/22 06:49:32;;;;;;;5.40;2.78;;;;;;;18.94;100.00;96726.75;5004682;28;20042;-71
2023/07/22 06:51:57;;;;;;;6.57;3.13;;;;;;;18.29;100.00;96724.94;5003141;28;20104;-69
2023/07/22 06:54:23;;;;;;;10.95;3.53;;;;;;;18.49;100.00;96723.06;4996642;28;20525;-69
2023/07/22 06:56:48;;;;;;;6.57;3.55;;;;;;;18.52;100.00;96727.75;5003561;28;20479;-69
2023/07/22 06:59:14;;;;;;;8.00;3.22;;;;;;;19.08;100.00;96724.53;4994387;28;20056;-71
2023/07/22 07:01:39;;;;;;;14.27;4.45;;;;;;;19.63;100.00;96725.16;5003340;28;20049;-71
2023/07/22 07:04:05;;;;;;;12.55;4.88;;;;;;;19.94;100.00;96736.09;5011620;28;20073;-69
2023/07/22 07:06:31;;;;;;;7.88;3.30;;;;;;;19.90;100.00;96737.38;5022795;28;20065;-71
2023/07/22 07:09:00;;;;;;;13.65;4.45;;;;;;;20.33;100.00;96734.50;5023085;28;20612;-69
2023/07/22 07:11:25;;;;;;;18.20;5.07;;;;;;;20.96;96.97;96733.47;5019398;28;20041;-71
2023/07/22 07:13:50;;;;;;;12.93;3.75;;;;;;;22.00;91.01;96743.13;5023403;28;20679;-71
2023/07/22 07:16:27;;;;;;;6.30;3.20;;;;;;;22.74;83.94;96742.16;5018006;28;20490;-71
2023/07/22 07:18:53;;;;;;;7.82;2.90;;;;;;;24.89;73.07;96747.06;5019997;28;20111;-70
2023/07/22 07:21:19;;;;;;;7.15;2.80;;;;;;;26.30;61.95;96751.13;5018201;28;20041;-70
2023/07/22 07:23:44;;;;;;;4.35;2.70;;;;;;;25.38;64.93;96754.69;5023271;28;20052;-70
2023/07/22 07:26:10;;;;;;;4.65;2.53;;;;;;;25.93;62.81;96749.13;5017976;28;20132;-70
2023/07/22 07:28:36;;;;;;;4.10;2.42;;;;;;;26.70;60.44;96755.72;5022970;28;20497;-70
2023/07/22 07:31:01;;;;;;;5.88;2.40;;;;;;;28.26;51.93;96758.81;5022446;28;20045;-70
2023/07/22 07:33:26;;;;;;;4.05;2.45;;;;;;;28.25;51.09;96762.88;5017139;28;20124;-70
2023/07/22 07:35:52;;;;;;;5.30;2.50;;;;;;;28.81;50.40;96767.97;5022723;28;20033;-71
2023/07/22 07:38:17;;;;;;;5.00;2.55;;;;;;;28.29;51.57;96757.06;5018392;28;20042;-72
2023/07/22 07:40:43;;;;;;;4.75;2.60;;;;;;;28.82;49.68;96766.69;5023331;28;20049;-70
2023/07/22 07:43:08;;;;;;;3.67;2.28;;;;;;;30.27;45.92;96764.28;5001422;28;20042;-72
2023/07/22 07:45:35;;;;;;;4.03;2.40;;;;;;;30.77;42.57;96768.88;5002558;28;20046;-70
2023/07/22 07:48:00;;;;;;;4.05;2.45;;;;;;;29.84;44.48;96763.31;5003256;28;20418;-71
2023/07/22 07:50:25;;;;;;;5.90;2.20;;;;;;;30.79;41.56;96769.16;4997055;28;20049;-71
2023/07/22 07:52:51;;;;;;;2.88;1.92;;;;;;;30.95;39.32;96772.66;5001427;28;20521;-70
2023/07/22 07:55:16;;;;;;;4.20;2.35;;;;;;;29.28;38.48;96772.56;4996841;28;20038;-70
2023/07/22 07:57:42;;;;;;;3.25;1.80;;;;;;;29.59;39.42;96770.41;5001762;28;20095;-70
2023/07/22 08:00:08;;;;;;;5.15;2.45;;;;;;;30.65;37.05;96767.25;4997657;28;20037;-70
2023/07/22 08:02:35;;;;;;;3.35;2.03;;;;;;;30.53;38.88;96768.44;5001948;28;20132;-71
2023/07/22 08:05:00;;;;;;;3.00;1.80;;;;;;;30.38;40.48;96771.34;5008603;28;20160;-71
2023/07/22 08:07:26;;;;;;;4.78;2.00;;;;;;;30.41;38.58;96779.59;4997531;28;20473;-70
2023/07/22 08:09:52;;;;;;;4.20;1.70;;;;;;;30.43;38.60;96770.63;5000512;28;20045;-69
2023/07/22 08:12:18;;;;;;;4.78;1.90;;;;;;;30.48;39.62;96773.50;5005416;28;20132;-70
2023/07/22 08:14:44;;;;;;;4.80;2.22;;;;;;;31.40;37.88;96773.75;5001705;28;20145;-70
2023/07/22 08:17:10;;;;;;;3.40;2.10;;;;;;;29.52;40.64;96775.19;4996953;28;20042;-69
2023/07/22 08:19:35;;;;;;;5.35;2.67;;;;;;;29.50;39.96;96774.91;5001956;28;20104;-70
2023/07/22 08:22:01;;;;;;;4.20;2.15;;;;;;;29.15;40.78;96772.91;5001101;28;20631;-69
2023/07/22 08:24:26;;;;;;;6.90;2.47;;;;;;;27.31;45.16;96763.28;4996774;28;20042;-68
2023/07/22 08:26:52;;;;;;;4.57;2.58;;;;;;;28.22;42.30;96761.06;5001692;28;20137;-68
2023/07/22 08:29:17;;;;;;;5.32;2.20;;;;;;;28.06;42.80;96758.69;4995413;28;20500;-69
2023/07/22 08:31:43;;;;;;;4.43;2.22;;;;;;;28.34;42.59;96762.81;5006875;28;20100;-70
2023/07/22 08:34:09;;;;;;;4.18;2.15;;;;;;;28.05;41.48;96763.53;5000574;28;20053;-69
2023/07/22 08:36:35;;;;;;;5.55;2.55;;;;;;;27.65;43.28;96753.50;5001661;28;20037;-69
2023/07/22 08:39:00;;;;;;;3.95;2.20;;;;;;;27.42;44.87;96761.50;5002206;28;20383;-69
2023/07/22 08:41:27;;;;;;;5.53;2.25;;;;;;;27.55;43.84;96766.88;4997126;28;20038;-70
2023/07/22 08:43:54;;;;;;;6.18;2.13;;;;;;;26.48;46.21;96758.72;5001254;28;20033;-69
2023/07/22 08:46:22;;;;;;;3.42;2.03;;;;;;;26.61;46.08;96755.75;4994603;28;20491;-69
2023/07/22 08:48:53;;;;;;;4.30;2.60;;;;;;;26.07;46.49;96752.53;5001378;28;20045;-69
2023/07/22 08:51:19;;;;;;;5.80;2.60;;;;;;;26.09;46.68;96758.47;4985556;28;20027;-70
2023/07/22 08:53:45;;;;;;;4.68;2.25;;;;;;;26.24;46.12;96753.00;5000926;28;20038;-69
2023/07/22 08:56:11;;;;;;;4.88;2.10;;;;;;;26.51;45.26;96758.56;4996978;28;20042;-69
2023/07/22 08:58:37;;;;;;;5.70;2.05;;;;;;;27.21;43.11;96759.72;5001469;28;20049;-70
2023/07/22 09:01:03;;;;;;;3.60;1.60;;;;;;;27.08;42.99;96760.72;4999725;28;20079;-67
2023/07/22 09:03:29;;;;;;;4.68;2.08;;;;;;;27.76;41.62;96765.00;4999504;28;20546;-70
2023/07/22 09:05:55;;;;;;;3.47;2.00;;;;;;;27.67;40.50;96755.84;5000618;28;20042;-72
2023/07/22 09:08:21;;;;;;;3.67;1.85;;;;;;;27.85;40.88;96758.50;4993382;28;20041;-71
2023/07/22 09:10:48;;;;;;;4.00;2.03;;;;;;;27.41;39.81;96764.78;5001262;28;20560;-71
2023/07/22 09:13:15;;;;;;;6.20;2.05;;;;;;;27.13;41.46;96756.47;4995691;28;20046;-70
2023/07/22 09:15:41;;;;;;;3.33;1.90;;;;;;;27.22;39.50;96756.41;5003836;28;20038;-70
2023/07/22 09:18:06;;;;;;;3.38;1.70;;;;;;;26.77;40.41;96760.22;5000298;28;20126;-70
2023/07/22 09:20:32;;;;;;;3.65;1.70;;;;;;;27.20;40.17;96758.91;5005270;28;20038;-71
2023/07/22 09:22:59;;;;;;;3.75;1.70;;;;;;;26.82;38.94;96756.78;4995509;28;20039;-70
2023/07/22 09:25:26;;;;;;;5.75;1.60;;;;;;;27.02;39.96;96753.41;4981054;28;20046;-70
2023/07/22 09:27:54;;;;;;;4.93;1.70;;;;;;;26.83;38.61;96761.91;4985815;28;20071;-71
2023/07/22 09:30:34;;;;;;;3.03;1.63;;;;;;;26.71;40.05;96760.09;4980050;28;20383;-70
2023/07/22 09:33:03;;;;;;;3.03;1.75;;;;;;;26.51;40.90;96754.97;4985381;28;20861;-70
2023/07/22 09:35:30;;;;;;;2.42;1.50;;;;;;;26.93;40.18;96748.59;4996886;28;20045;-71
2023/07/22 09:37:56;;;;;;;3.58;1.40;;;;;;;26.42;40.06;96750.16;4985922;28;20085;-71
2023/07/22 09:40:24;;;;;;;3.42;1.60;;;;;;;26.64;40.87;96758.38;4981287;28;20582;-71
2023/07/22 09:42:51;;;;;;;6.07;2.00;;;;;;;26.37;39.75;96756.41;4985313;28;20034;-71
2023/07/22 09:45:19;;;;;;;4.35;1.77;;;;;;;25.85;41.75;96755.50;4981702;28;20046;-69
2023/07/22 09:47:46;;;;;;;6.05;2.10;;;;;;;25.53;41.68;96752.03;4984206;28;20053;-70
2023/07/22 09:50:16;;;;;;;3.00;1.90;;;;;;;25.92;41.96;96752.38;4981110;28;20104;-69
2023/07/22 09:52:50;;;;;;;4.40;1.80;;;;;;;26.12;39.87;96747.06;4984974;28;20099;-69
2023/07/22 09:55:21;;;;;;;3.53;1.58;;;;;;;27.12;39.63;96756.94;4979768;28;20042;-70
2023/07/22 09:57:52;;;;;;;3.17;1.70;;;;;;;27.43;38.86;96745.41;4982449;28;20050;-69
2023/07/22 10:00:20;;;;;;;3.47;1.85;;;;;;;26.75;38.06;96762.72;4978586;28;20085;-69
2023/07/22 10:02:49;;;;;;;3.88;1.80;;;;;;;26.61;39.82;96748.09;4995846;28;20481;-69
2023/07/22 10:05:17;;;;;;;6.35;1.70;;;;;;;26.47;39.68;96748.72;4997402;28;20069;-71
2023/07/22 10:07:50;;;;;;;3.33;2.03;;;;;;;26.55;40.70;96744.34;5004614;28;20049;-71
2023/07/22 10:10:18;;;;;;;2.47;1.70;;;;;;;26.59;40.34;96735.75;5000155;28;20088;-71
2023/07/22 10:12:45;;;;;;;5.03;1.60;;;;;;;26.13;39.37;96747.88;5001791;28;20041;-71
2023/07/22 10:15:12;;;;;;;4.82;1.48;;;;;;;25.27;40.84;96743.13;4998803;28;20041;-72
2023/07/22 10:17:43;;;;;;;3.33;1.88;;;;;;;24.79;42.38;96741.41;5004022;28;20049;-70
2023/07/22 10:20:15;;;;;;;3.47;1.60;;;;;;;25.54;41.00;96731.94;4999266;28;20038;-71
2023/07/22 10:22:43;;;;;;;3.75;1.95;;;;;;;25.80;41.43;96744.91;4991457;28;20069;-72
2023/07/22 10:25:12;;;;;;;4.00;1.75;;;;;;;25.49;40.78;96729.75;4980120;28;20125;-70
2023/07/22 10:27:39;;;;;;;5.10;2.08;;;;;;;25.48;43.49;96728.22;4983497;28;20043;-68
2023/07/22 10:30:06;;;;;;;4.13;2.03;;;;;;;24.69;44.76;96727.84;4978124;28;20039;-71
2023/07/22 10:32:33;;;;;;;4.07;1.80;;;;;;;24.31;46.46;96721.25;4987512;28;20097;-71
2023/07/22 10:34:58;;;;;;;4.38;2.00;;;;;;;24.77;43.99;96727.06;4987570;28;20042;-70
2023/07/22 10:37:30;;;;;;;3.13;1.80;;;;;;;25.11;43.98;96724.53;4980524;28;20556;-70
2023/07/22 10:40:20;;;;;;;3.72;1.15;;;;;;;25.34;44.11;96723.22;4985236;28;20034;-69
2023/07/22 10:42:53;;;;;;;3.92;2.10;;;;;;;25.74;43.69;96722.31;4985978;28;20042;-70
2023/07/22 10:45:30;;;;;;;3.42;1.80;;;;;;;25.45;42.16;96722.78;4980806;28;20583;-67
2023/07/22 10:48:09;;;;;;;3.95;2.08;;;;;;;25.79;43.24;96716.06;4986549;28;20125;-69
2023/07/22 10:50:40;;;;;;;3.42;1.60;;;;;;;25.14;41.76;96720.81;4985610;28;20439;-68
2023/07/22 10:53:10;;;;;;;3.50;1.88;;;;;;;25.56;42.24;96712.63;4984701;28;20046;-66
2023/07/22 10:56:07;;;;;;;2.75;1.40;;;;;;;25.31;42.25;96708.09;4996950;28;20053;-69
2023/07/22 10:58:45;;;;;;;4.45;1.90;;;;;;;24.69;42.52;96705.44;4996748;28;20122;-69
2023/07/22 11:01:26;;;;;;;2.72;1.88;;;;;;;24.54;44.12;96692.00;4993332;28;20440;-69
2023/07/22 11:04:13;;;;;;;3.10;1.63;;;;;;;24.78;43.37;96695.03;4995394;28;20038;-69
2023/07/22 11:07:00;;;;;;;5.03;1.65;;;;;;;25.11;43.60;96683.28;4991716;28;20061;-70
2023/07/22 11:09:34;;;;;;;3.55;1.98;;;;;;;25.49;42.17;96692.53;4991120;28;20046;-68
2023/07/22 11:11:59;;;;;;;3.85;1.70;;;;;;;24.76;43.47;96691.16;4996601;28;20046;-65
2023/07/22 11:14:27;;;;;;;6.20;1.73;;;;;;;24.09;44.69;96682.09;4993540;28;20049;-67
2023/07/22 11:16:52;;;;;;;5.55;1.83;;;;;;;24.72;44.80;96676.50;4997916;28;20794;-68
2023/07/22 11:19:20;;;;;;;5.50;1.83;;;;;;;25.37;43.17;96675.41;4991162;28;20180;-68
2023/07/22 11:21:47;;;;;;;4.05;1.73;;;;;;;25.41;43.15;96671.66;4996772;28;20039;-67
2023/07/22 11:24:13;;;;;;;2.58;1.70;;;;;;;24.96;44.32;96662.72;4979592;28;20411;-68
2023/07/22 11:26:40;;;;;;;3.97;1.85;;;;;;;24.96;45.31;96669.09;4984806;28;20042;-71